createdAt,value
2018-07-10T00:02:40.176Z,18.00
2018-07-10T00:05:50.585Z,17.90
2018-07-10T00:11:25.963Z,18.00
2018-07-10T00:13:55.364Z,18.00
2018-07-10T00:16:24.661Z,18.00
2018-07-10T00:18:54.668Z,18.10
2018-07-10T00:23:52.746Z,18.10
2018-07-10T00:26:21.897Z,18.00
2018-07-10T00:28:51.036Z,18.10
2018-07-10T00:31:20.184Z,18.10
2018-07-10T00:33:49.329Z,18.10
2018-07-10T00:36:18.508Z,18.20
2018-07-10T00:39:01.372Z,18.10
2018-07-10T00:41:33.418Z,18.20
2018-07-10T00:44:03.235Z,18.00
2018-07-10T00:46:35.411Z,18.00
2018-07-10T00:49:04.594Z,18.00
2018-07-10T00:51:37.112Z,18.00
2018-07-10T00:54:06.275Z,17.90
2018-07-10T00:59:06.651Z,18.00
2018-07-10T01:01:36.224Z,18.00
2018-07-10T01:06:34.292Z,18.00
2018-07-10T01:09:03.501Z,18.00
2018-07-10T01:14:01.570Z,18.00
2018-07-10T01:16:38.277Z,18.00
2018-07-10T01:19:12.941Z,17.80
2018-07-10T01:21:43.080Z,17.80
2018-07-10T01:24:12.224Z,17.80
2018-07-10T01:26:42.328Z,17.80
2018-07-10T01:31:46.881Z,17.80
2018-07-10T01:34:16.268Z,17.80
2018-07-10T01:36:45.431Z,17.80
2018-07-10T01:39:14.770Z,17.80
2018-07-10T01:41:44.137Z,17.80
2018-07-10T01:44:13.292Z,17.80
2018-07-10T01:46:42.735Z,17.90
2018-07-10T01:49:11.890Z,17.80
2018-07-10T01:51:41.032Z,17.80
2018-07-10T01:54:10.188Z,17.70
2018-07-10T01:56:39.384Z,17.60
2018-07-10T01:59:08.517Z,17.50
2018-07-10T02:01:37.668Z,17.50
2018-07-10T02:04:07.979Z,17.50
2018-07-10T02:06:37.135Z,17.40
2018-07-10T02:09:06.440Z,17.40
2018-07-10T02:11:35.580Z,17.30
2018-07-10T02:14:04.960Z,17.20
2018-07-10T02:16:34.045Z,17.10
2018-07-10T02:19:03.211Z,17.10
2018-07-10T02:21:32.355Z,17.10
2018-07-10T02:26:30.424Z,17.20
2018-07-10T02:28:59.560Z,17.20
2018-07-10T02:31:28.752Z,17.20
2018-07-10T02:33:57.896Z,17.20
2018-07-10T02:36:27.060Z,17.10
2018-07-10T02:38:59.513Z,17.10
2018-07-10T02:41:28.654Z,17.10
2018-07-10T02:44:05.539Z,17.20
2018-07-10T02:46:36.620Z,17.30
2018-07-10T02:49:14.888Z,17.30
2018-07-10T02:51:58.154Z,17.30
2018-07-10T02:54:31.274Z,17.30
2018-07-10T02:57:00.437Z,17.30
2018-07-10T02:59:36.596Z,17.20
2018-07-10T03:04:40.141Z,17.20
2018-07-10T03:07:12.485Z,17.20
2018-07-10T03:09:41.619Z,17.10
2018-07-10T03:12:11.423Z,17.00
2018-07-10T03:14:40.917Z,17.00
2018-07-10T03:17:10.545Z,17.00
2018-07-10T03:19:39.727Z,17.10
2018-07-10T03:22:08.878Z,17.10
2018-07-10T03:24:38.008Z,17.10
2018-07-10T03:27:07.164Z,17.10
2018-07-10T03:29:36.304Z,17.00
2018-07-10T03:32:05.448Z,16.90
2018-07-10T03:34:34.604Z,17.00
2018-07-10T03:37:03.757Z,17.00
2018-07-10T03:39:32.896Z,16.90
2018-07-10T03:42:02.033Z,17.00
2018-07-10T03:44:31.184Z,17.00
2018-07-10T03:47:00.320Z,17.10
2018-07-10T03:49:29.792Z,17.10
2018-07-10T03:51:59.072Z,17.00
2018-07-10T03:54:28.220Z,16.90
2018-07-10T03:56:57.384Z,16.90
2018-07-10T03:59:26.524Z,16.80
2018-07-10T04:01:56.027Z,16.80
2018-07-10T04:04:25.256Z,16.70
2018-07-10T04:06:54.628Z,16.80
2018-07-10T04:09:23.843Z,16.80
2018-07-10T04:11:53.080Z,16.90
2018-07-10T04:14:24.259Z,16.80
2018-07-10T04:16:53.955Z,16.70
2018-07-10T04:19:23.940Z,16.70
2018-07-10T04:21:55.399Z,16.80
2018-07-10T04:24:24.820Z,17.00
2018-07-10T04:27:31.099Z,17.00
2018-07-10T04:31:17.252Z,17.00
2018-07-10T04:33:49.089Z,16.90
2018-07-10T04:36:19.232Z,16.80
2018-07-10T04:38:55.148Z,16.90
2018-07-10T04:41:28.694Z,16.80
2018-07-10T04:44:07.897Z,16.80
2018-07-10T04:46:43.308Z,16.90
2018-07-10T04:49:56.044Z,16.90
2018-07-10T04:52:29.124Z,16.80
2018-07-10T04:55:15.929Z,16.80
2018-07-10T04:57:56.361Z,16.70
2018-07-10T05:00:27.432Z,16.70
2018-07-10T05:02:57.699Z,16.80
2018-07-10T05:07:57.903Z,16.90
2018-07-10T05:10:27.557Z,17.00
2018-07-10T05:12:57.054Z,17.00
2018-07-10T05:15:26.189Z,17.10
2018-07-10T05:17:56.981Z,17.10
2018-07-10T05:22:55.977Z,17.30
2018-07-10T05:25:25.121Z,17.30
2018-07-10T05:27:54.281Z,17.40
2018-07-10T05:30:23.415Z,17.40
2018-07-10T05:32:52.552Z,17.40
2018-07-10T05:35:21.712Z,17.50
2018-07-10T05:37:51.148Z,17.60
2018-07-10T05:40:26.647Z,17.70
2018-07-10T05:42:55.833Z,17.80
2018-07-10T05:45:26.139Z,17.60
2018-07-10T05:48:01.177Z,17.80
2018-07-10T05:50:36.013Z,17.80
2018-07-10T05:53:09.477Z,17.80
2018-07-10T05:55:45.516Z,17.70
2018-07-10T05:58:14.727Z,17.60
2018-07-10T06:00:44.023Z,17.60
2018-07-10T06:03:13.229Z,17.70
2018-07-10T06:05:42.389Z,17.60
2018-07-10T06:08:13.873Z,17.50
2018-07-10T06:10:43.334Z,17.50
2018-07-10T06:13:12.486Z,17.30
2018-07-10T06:15:41.624Z,17.10
2018-07-10T06:18:10.777Z,17.10
2018-07-10T06:20:42.033Z,17.10
2018-07-10T06:23:11.656Z,17.10
2018-07-10T06:25:41.093Z,17.00
2018-07-10T06:28:15.840Z,17.00
2018-07-10T06:30:44.985Z,17.10
2018-07-10T06:33:27.403Z,17.00
2018-07-10T06:36:21.577Z,16.90
2018-07-10T06:39:06.388Z,16.70
2018-07-10T06:41:39.128Z,16.70
2018-07-10T06:44:08.289Z,16.70
2018-07-10T06:46:42.928Z,16.60
2018-07-10T06:49:47.493Z,16.60
2018-07-10T06:52:19.207Z,16.70
2018-07-10T06:55:11.455Z,16.70
2018-07-10T06:57:51.919Z,16.70
2018-07-10T07:02:50.076Z,16.50
2018-07-10T07:05:19.230Z,16.40
2018-07-10T07:07:48.376Z,16.40
2018-07-10T07:10:18.005Z,16.40
2018-07-10T07:12:47.516Z,16.30
2018-07-10T07:15:20.003Z,16.40
2018-07-10T07:17:51.642Z,16.30
2018-07-10T07:20:22.268Z,16.50
2018-07-10T07:25:20.944Z,16.80
2018-07-10T07:27:50.161Z,17.00
2018-07-10T07:30:19.319Z,17.00
2018-07-10T07:32:49.266Z,16.90
2018-07-10T07:35:18.432Z,16.90
2018-07-10T07:37:47.765Z,16.70
2018-07-10T07:40:16.932Z,16.40
2018-07-10T07:42:46.103Z,16.30
2018-07-10T07:45:15.249Z,16.20
2018-07-10T07:47:44.795Z,16.10
2018-07-10T07:50:13.960Z,15.90
2018-07-10T07:52:43.200Z,15.80
2018-07-10T07:55:13.379Z,15.70
2018-07-10T07:57:42.540Z,15.60
2018-07-10T08:00:11.700Z,15.70
2018-07-10T08:02:41.107Z,15.60
2018-07-10T08:05:10.292Z,15.70
2018-07-10T08:07:39.454Z,15.70
2018-07-10T08:10:08.595Z,15.60
2018-07-10T08:12:37.752Z,15.60
2018-07-10T08:15:06.888Z,15.70
2018-07-10T08:17:37.149Z,15.70
2018-07-10T08:20:07.302Z,15.60
2018-07-10T08:22:36.537Z,15.50
2018-07-10T08:25:06.528Z,15.60
2018-07-10T08:30:06.694Z,15.70
2018-07-10T08:32:37.724Z,15.80
2018-07-10T08:35:07.016Z,15.80
2018-07-10T08:37:36.203Z,15.80
2018-07-10T08:40:05.367Z,15.90
2018-07-10T08:42:34.534Z,15.90
2018-07-10T08:45:05.004Z,15.90
2018-07-10T08:47:35.046Z,16.00
2018-07-10T08:50:04.209Z,16.00
2018-07-10T08:52:33.391Z,16.00
2018-07-10T08:55:02.528Z,16.10
2018-07-10T08:57:31.693Z,16.40
2018-07-10T09:00:01.059Z,16.40
2018-07-10T09:02:30.229Z,15.90
2018-07-10T09:04:59.397Z,15.80
2018-07-10T09:07:28.550Z,15.90
2018-07-10T09:09:57.717Z,16.10
2018-07-10T09:20:27.815Z,15.80
2018-07-10T09:22:57.001Z,15.80
2018-07-10T09:25:26.236Z,15.80
2018-07-10T09:30:53.351Z,15.90
2018-07-10T09:35:52.674Z,16.30
2018-07-10T09:43:21.671Z,16.80
2018-07-10T09:45:51.565Z,17.00
2018-07-10T10:29:39.473Z,18.00
2018-07-10T10:32:08.652Z,18.40
2018-07-10T10:34:37.829Z,17.90
2018-07-10T10:37:07.446Z,18.20
2018-07-10T10:39:36.628Z,18.00
2018-07-10T10:42:06.071Z,18.10
2018-07-10T10:44:35.237Z,17.70
2018-07-10T10:47:04.427Z,17.80
2018-07-10T10:49:33.596Z,17.80
2018-07-10T10:52:02.780Z,17.80
2018-07-10T10:54:31.962Z,17.80
2018-07-10T10:57:01.139Z,18.10
2018-07-10T10:59:30.314Z,18.20
2018-07-10T11:01:59.496Z,18.40
2018-07-10T11:04:28.648Z,18.70
2018-07-10T11:06:57.798Z,18.90
2018-07-10T11:09:27.140Z,18.70
2018-07-10T11:11:57.300Z,18.40
2018-07-10T11:14:26.430Z,18.40
2018-07-10T11:16:55.592Z,18.50
2018-07-10T11:22:05.304Z,18.40
2018-07-10T11:25:09.648Z,17.90
2018-07-10T11:28:15.018Z,17.60
2018-07-10T11:33:13.120Z,17.70
2018-07-10T11:35:42.266Z,17.90
2018-07-10T11:38:13.366Z,17.70
2018-07-10T11:40:44.295Z,17.80
2018-07-10T11:43:13.720Z,17.90
2018-07-10T11:45:42.871Z,18.50
2018-07-10T11:48:11.976Z,18.70
2018-07-10T11:50:41.125Z,18.50
2018-07-10T11:53:10.292Z,18.30
2018-07-10T11:55:39.434Z,17.80
2018-07-10T11:58:08.984Z,17.70
2018-07-10T12:00:38.316Z,17.60
2018-07-10T12:03:07.991Z,17.50
2018-07-10T12:05:39.122Z,17.60
2018-07-10T12:08:08.303Z,17.50
2018-07-10T12:10:38.635Z,17.70
2018-07-10T12:13:08.048Z,17.60
2018-07-10T12:18:06.098Z,17.70
2018-07-10T12:20:42.454Z,17.80
2018-07-10T12:23:12.716Z,17.90
2018-07-10T12:25:43.562Z,17.90
2018-07-10T12:30:42.932Z,18.40
2018-07-10T12:33:12.068Z,19.60
2018-07-10T12:38:10.930Z,20.40
2018-07-10T12:40:40.083Z,20.40
2018-07-10T12:45:38.173Z,20.30
2018-07-10T12:48:07.314Z,20.20
2018-07-10T12:50:36.469Z,19.60
2018-07-10T12:53:05.600Z,19.80
2018-07-10T12:55:36.398Z,20.30
2018-07-10T12:58:05.668Z,20.10
2018-07-10T13:00:37.776Z,20.50
2018-07-10T13:03:09.609Z,20.50
2018-07-10T13:05:45.281Z,21.30
2018-07-10T13:08:14.442Z,21.60
2018-07-10T13:10:43.715Z,21.00
2018-07-10T13:13:12.895Z,19.70
2018-07-10T13:15:42.119Z,19.30
2018-07-10T13:18:11.310Z,19.40
2018-07-10T13:20:40.566Z,18.90
2018-07-10T13:23:09.948Z,18.80
2018-07-10T13:25:39.117Z,18.60
2018-07-10T13:28:08.293Z,18.40
2018-07-10T13:30:37.468Z,18.30
2018-07-10T13:33:06.637Z,18.40
2018-07-10T13:35:36.355Z,18.40
2018-07-10T13:40:37.020Z,20.60
2018-07-10T13:43:06.260Z,20.20
2018-07-10T13:45:35.437Z,21.30
2018-07-10T13:48:04.621Z,21.80
2018-07-10T13:50:34.698Z,21.90
2018-07-10T13:53:04.731Z,21.40
2018-07-10T13:55:33.963Z,20.70
2018-07-10T13:58:23.925Z,20.90
2018-07-10T14:00:59.137Z,20.80
2018-07-10T14:03:28.323Z,20.50
2018-07-10T14:05:57.467Z,20.40
2018-07-10T14:08:26.645Z,21.10
2018-07-10T14:10:55.811Z,21.30
2018-07-10T14:13:24.966Z,20.60
2018-07-10T14:15:54.099Z,21.20
2018-07-10T14:18:24.668Z,20.70
2018-07-10T14:20:57.043Z,20.10
2018-07-10T14:23:26.195Z,19.80
2018-07-10T14:25:55.665Z,19.70
2018-07-10T14:28:24.928Z,19.90
2018-07-10T14:30:53.958Z,19.80
2018-07-10T14:33:23.532Z,19.40
2018-07-10T14:38:25.232Z,19.90
2018-07-10T14:40:54.802Z,19.40
2018-07-10T14:46:00.390Z,19.80
2018-07-10T14:48:33.680Z,19.90
2018-07-10T14:51:03.272Z,19.90
2018-07-10T14:53:32.402Z,20.10
2018-07-10T14:56:01.563Z,20.10
2018-07-10T14:58:30.706Z,20.10
2018-07-10T15:00:59.866Z,20.10
2018-07-10T15:03:29.010Z,19.90
2018-07-10T15:05:58.181Z,20.40
2018-07-10T15:08:27.393Z,20.40
2018-07-10T15:10:56.573Z,20.30
2018-07-10T15:13:25.737Z,20.20
2018-07-10T15:16:02.299Z,20.20
2018-07-10T15:18:37.029Z,19.90
2018-07-10T15:23:35.251Z,19.40
2018-07-10T15:26:04.392Z,19.30
2018-07-10T15:28:33.673Z,19.00
2018-07-10T15:31:02.843Z,19.00
2018-07-10T15:33:32.003Z,19.00
2018-07-10T15:36:01.188Z,19.30
2018-07-10T15:38:30.368Z,19.20
2018-07-10T15:40:59.860Z,19.00
2018-07-10T15:43:29.032Z,18.80
2018-07-10T15:45:58.259Z,18.90
2018-07-10T15:48:27.431Z,18.90
2018-07-10T15:50:56.693Z,18.70
2018-07-10T15:53:25.868Z,19.00
2018-07-10T15:55:55.048Z,19.40
2018-07-10T15:58:24.244Z,19.80
2018-07-10T16:00:53.423Z,21.40
2018-07-10T16:03:22.821Z,22.20
2018-07-10T16:05:52.329Z,21.30
2018-07-10T16:08:21.703Z,20.80
2018-07-10T16:10:57.277Z,20.40
2018-07-10T16:13:28.099Z,19.80
2018-07-10T16:15:58.993Z,19.70
2018-07-10T16:18:29.967Z,19.80
2018-07-10T16:21:02.933Z,19.80
2018-07-10T16:23:33.079Z,19.70
2018-07-10T16:26:12.818Z,19.70
2018-07-10T16:31:18.403Z,19.50
2018-07-10T16:33:47.560Z,19.40
2018-07-10T16:36:17.824Z,19.60
2018-07-10T16:38:47.015Z,19.50
2018-07-10T16:41:23.127Z,19.30
2018-07-10T16:43:53.573Z,19.20
2018-07-10T16:49:07.380Z,19.20
2018-07-10T16:51:49.035Z,19.20
2018-07-10T16:54:18.742Z,19.10
2018-07-10T16:56:47.919Z,19.20
2018-07-10T16:59:17.095Z,19.20
2018-07-10T17:01:46.270Z,19.20
2018-07-10T17:04:15.691Z,19.70
2018-07-10T17:06:45.416Z,19.80
2018-07-10T17:09:14.565Z,19.60
2018-07-10T17:11:43.702Z,19.40
2018-07-10T17:14:12.864Z,21.20
2018-07-10T17:16:42.007Z,21.30
2018-07-10T17:19:11.163Z,20.50
2018-07-10T17:21:40.341Z,20.20
2018-07-10T17:24:09.480Z,19.80
2018-07-10T17:26:39.018Z,19.40
2018-07-10T17:29:10.880Z,19.30
2018-07-10T17:34:09.120Z,18.80
2018-07-10T17:36:38.260Z,18.60
2018-07-10T17:41:37.393Z,18.40
2018-07-10T17:44:10.270Z,18.30
2018-07-10T17:46:39.936Z,18.30
2018-07-10T17:49:09.100Z,18.20
2018-07-10T17:51:38.230Z,18.20
2018-07-10T17:54:07.385Z,18.20
2018-07-10T17:56:36.546Z,18.20
2018-07-10T17:59:07.491Z,18.10
2018-07-10T18:01:37.168Z,18.70
2018-07-10T18:04:06.735Z,19.00
2018-07-10T18:06:36.428Z,19.60
2018-07-10T18:11:35.532Z,21.00
2018-07-10T18:16:35.776Z,20.90
2018-07-10T18:19:05.531Z,19.70
2018-07-10T18:21:35.917Z,19.50
2018-07-10T18:26:34.279Z,18.60
2018-07-10T18:29:03.598Z,18.30
2018-07-10T18:31:32.809Z,18.10
2018-07-10T18:36:30.897Z,18.00
2018-07-10T18:39:00.076Z,17.90
2018-07-10T18:41:29.237Z,17.90
2018-07-10T18:43:58.383Z,17.80
2018-07-10T18:46:27.528Z,17.80
2018-07-10T18:48:56.677Z,17.70
2018-07-10T18:51:25.973Z,17.60
2018-07-10T18:56:24.185Z,17.50
2018-07-10T18:59:03.974Z,17.50
2018-07-10T19:02:07.569Z,17.50
2018-07-10T19:04:51.376Z,17.50
2018-07-10T19:07:20.742Z,17.50
2018-07-10T19:09:49.973Z,17.40
2018-07-10T19:12:19.174Z,17.30
2018-07-10T19:14:48.358Z,17.30
2018-07-10T19:17:24.116Z,17.20
2018-07-10T19:19:55.165Z,17.20
2018-07-10T19:22:28.607Z,17.10
2018-07-10T19:25:00.230Z,17.10
2018-07-10T19:27:32.047Z,17.10
2018-07-10T19:32:35.424Z,17.00
2018-07-10T19:35:04.583Z,16.80
2018-07-10T19:37:37.160Z,16.70
2018-07-10T19:40:06.644Z,16.70
2018-07-10T19:42:38.317Z,16.60
2018-07-10T19:45:07.525Z,16.60
2018-07-10T19:47:36.688Z,16.60
2018-07-10T19:52:52.345Z,16.60
2018-07-10T19:55:24.337Z,16.50
2018-07-10T19:58:31.132Z,16.50
2018-07-10T20:04:11.363Z,16.40
2018-07-10T20:07:08.067Z,16.40
2018-07-10T20:09:51.891Z,16.30
2018-07-10T20:15:11.424Z,16.20
2018-07-10T20:17:50.740Z,16.20
2018-07-10T20:20:24.375Z,16.10
2018-07-10T20:23:08.164Z,16.00
2018-07-10T20:26:00.235Z,16.00
2018-07-10T20:29:37.068Z,16.00
2018-07-10T20:32:07.887Z,16.00
2018-07-10T20:35:17.264Z,15.90
2018-07-10T20:37:48.793Z,15.90
2018-07-10T20:40:32.472Z,15.90
2018-07-10T20:43:12.091Z,15.90
2018-07-10T20:45:57.008Z,15.90
2018-07-10T20:48:59.923Z,15.80
2018-07-10T20:54:20.463Z,15.70
2018-07-10T20:57:25.474Z,15.70
2018-07-10T21:04:55.339Z,15.80
2018-07-10T21:07:29.038Z,15.80
2018-07-10T21:12:52.273Z,15.90
2018-07-10T21:15:34.991Z,15.90
2018-07-10T21:18:23.184Z,15.80
2018-07-10T21:21:21.954Z,15.80
2018-07-10T21:27:43.936Z,15.80
2018-07-10T21:30:27.231Z,15.70
2018-07-10T21:35:40.021Z,15.60
2018-07-10T21:38:18.118Z,15.60
2018-07-10T21:40:59.414Z,15.60
2018-07-10T21:43:50.790Z,15.50
2018-07-10T21:46:38.806Z,15.50
2018-07-10T21:49:38.160Z,15.50
2018-07-10T21:52:07.343Z,15.40
2018-07-10T21:54:36.511Z,15.50
2018-07-10T21:57:05.733Z,15.40
2018-07-10T21:59:38.520Z,15.40
2018-07-10T22:02:10.303Z,15.50
2018-07-10T22:04:40.155Z,15.50
2018-07-10T22:09:42.555Z,15.50
2018-07-10T22:14:45.348Z,15.50
2018-07-10T22:19:49.179Z,15.50
2018-07-10T22:24:49.927Z,15.40
2018-07-10T22:29:53.985Z,15.30
2018-07-10T22:32:30.998Z,15.40
2018-07-10T22:35:00.159Z,15.30
2018-07-10T22:37:29.334Z,15.30
2018-07-10T22:39:58.494Z,15.20
2018-07-10T22:42:27.683Z,15.10
2018-07-10T22:44:58.753Z,15.00
2018-07-10T22:50:07.687Z,15.00
2018-07-10T22:52:44.885Z,15.10
2018-07-10T22:55:17.543Z,15.20
2018-07-10T22:57:47.280Z,15.20
2018-07-10T23:02:52.695Z,15.20
2018-07-10T23:05:21.831Z,15.00
2018-07-10T23:10:19.870Z,14.30
2018-07-10T23:12:49.631Z,14.10
2018-07-10T23:17:47.684Z,13.70
2018-07-10T23:20:17.028Z,13.60
2018-07-10T23:22:56.648Z,13.60
2018-07-10T23:28:01.284Z,13.40
2018-07-10T23:30:33.982Z,13.40
2018-07-10T23:35:33.821Z,13.30
2018-07-10T23:38:19.337Z,13.20
2018-07-10T23:40:48.900Z,13.20
2018-07-10T23:43:19.007Z,13.20
2018-07-10T23:48:17.681Z,13.00
2018-07-10T23:50:46.898Z,12.90
2018-07-10T23:53:55.744Z,12.90
2018-07-10T23:56:24.884Z,12.90
2018-07-10T23:58:54.011Z,12.90
